Estación de El Carmen

Ultimos registro cada 15 minutos 47
Estación Fecha / Hora Temperatura Humedad Lluvia Velocidad Dirección Radiación Presion
47 El Carmen 04-09-2026 11:30 6,2 94,5 0 3 143 241,9 981
46 El Carmen 04-09-2026 11:15 5,7 95 0 2,5 136 204,4 981,1
45 El Carmen 04-09-2026 11:00 5,4 95,3 0 2,5 140 180,6 981,3
44 El Carmen 04-09-2026 10:45 5,4 95,7 0 3,5 143 190,6 981,3
43 El Carmen 04-09-2026 10:30 5,3 96,1 0 3 149 199,4 981,4
42 El Carmen 04-09-2026 10:15 5 96,1 0 2,5 136 148,1 981,2
41 El Carmen 04-09-2026 10:00 5,1 96,1 0 2,5 142 126,9 981,3
40 El Carmen 04-09-2026 09:45 4,8 95,9 0 2,5 139 139,4 981,3
39 El Carmen 04-09-2026 09:30 4,6 95,8 0 3 135 108,1 981,4
38 El Carmen 04-09-2026 09:15 4,7 95,9 0 2,5 132 100,6 981,4
37 El Carmen 04-09-2026 09:00 4,7 95,5 0 2,5 149 73,1 981,4
36 El Carmen 04-09-2026 08:45 4,7 95,5 0 3 140 60,6 981,3
35 El Carmen 04-09-2026 08:30 4,7 95,3 0 2,5 149 35,6 981,3
34 El Carmen 04-09-2026 08:15 4,7 95 0 3 149 30,6 981,3
33 El Carmen 04-09-2026 08:00 4,8 94,7 0 2,5 140 21,9 981,4
32 El Carmen 04-09-2026 07:45 4,8 94,4 0 2 138 28,1 981,2
31 El Carmen 04-09-2026 07:30 4,9 94,3 0 3 135 6,9 981,2
30 El Carmen 04-09-2026 07:15 4,9 93,9 0 2,5 135 3,1 981,1
29 El Carmen 04-09-2026 07:00 4,9 93,7 0 2 131 0,6 980,9
28 El Carmen 04-09-2026 06:45 4,9 93,5 0 1,5 131 0,6 980,8
27 El Carmen 04-09-2026 06:30 5 93 0 1,5 132 0,6 980,8
26 El Carmen 04-09-2026 06:15 5,2 92,9 0 1 146 0,6 980,8
25 El Carmen 04-09-2026 06:00 5,4 92,9 0 2 139 0,6 980,8
24 El Carmen 04-09-2026 05:45 5,3 92,9 0 2,5 135 0,6 980,7
23 El Carmen 04-09-2026 05:30 5,3 92,6 0 3 133 0,6 980,7
22 El Carmen 04-09-2026 05:15 5,4 92,3 0 3 136 0,6 980,7
21 El Carmen 04-09-2026 05:00 5,5 92,2 0 2,5 136 0,6 980,7
20 El Carmen 04-09-2026 04:45 5,7 91,9 0 3 138 0,6 980,7
19 El Carmen 04-09-2026 04:30 5,8 91,8 0 3 143 0,6 980,6
18 El Carmen 04-09-2026 04:15 5,8 91,5 0 2,5 149 0,6 980,6
17 El Carmen 04-09-2026 04:00 6,1 91,4 0 2 147 0,6 980,7
16 El Carmen 04-09-2026 03:45 6,2 91,1 0 1,5 149 0,6 980,8
15 El Carmen 04-09-2026 03:30 6,1 91,3 0 1,5 140 0,6 980,9
14 El Carmen 04-09-2026 03:15 6,3 91 0 1,5 136 0,6 980,9
13 El Carmen 04-09-2026 03:00 6,5 90,7 0 2 131 0,6 981
12 El Carmen 04-09-2026 02:45 6,7 89,9 0 1,5 136 0,6 981
11 El Carmen 04-09-2026 02:30 7 89 0 1,5 139 0,6 981,1
10 El Carmen 04-09-2026 02:15 7,3 88,5 0 2 140 0,6 981,3
9 El Carmen 04-09-2026 02:00 7,5 88,2 0 1,5 138 0,6 981,3
8 El Carmen 04-09-2026 01:45 7,7 87,4 0 2 138 0,6 981,5
7 El Carmen 04-09-2026 01:30 8,1 86,7 0 2,5 142 0,6 981,4
6 El Carmen 04-09-2026 01:15 8,3 86,8 0 2,5 139 0,6 981,5
5 El Carmen 04-09-2026 01:00 8,5 86,6 0 2,5 139 0,6 981,4
4 El Carmen 04-09-2026 00:45 8,6 87,1 0 2 136 0,6 981,4
3 El Carmen 04-09-2026 00:30 8,4 87,6 0 1,5 136 0,6 981,5
2 El Carmen 04-09-2026 00:15 8,3 87,6 0 0,5 131 0,6 981,4
1 El Carmen 04-09-2026 00:00 8,3 87,1 0 0 132 0,6 981,6